Attleboro Falls, Massachusetts
Current Conditions -  °F | °C
As of 3:55 AM on Wednesday 28 Jan 2015 (Local Time) from KSFZ Reporting Station
Clear Clear  
Wind Chill: -1°   Ceiling: Unl
Heat Index: 12°   Visibility: 10mi
Dew Point:   Wind: 10mph
Humidity: 57%   Direction: 300°WNW
Pressure: 29.72"   Gusts: 16mph
Location:  41.97°N, 71.32°W
Report Text: KSFZ 280855Z 30009G14KT 10SM CLR M11/M18 A2972 RMK AO1 52024
Loading
Personal Weather Stations






























Interactive Weather Map New forecast layout! Learn more

10-Day Weather Forecast

Advertisements
Track Severe Weather on mobile